Time;durP1;ratioP1;P1;durP2;ratioP2;P2;SDS_P1;SDS_P2;PMS_P1;PMS_P2;Temp;Humidity;BMP_temperature;BMP_pressure;BME280_temperature;BME280_humidity;BME280_pressure;Samples;Min_cycle;Max_cycle;Signal;HPM_P1;HPM_P2
2022/03/25 00:01:14;;;;;;;23.60;13.63;;;5.20;99.90;;;;;;4972700;28;20186;-74
2022/03/25 00:03:40;;;;;;;26.20;15.13;;;5.20;99.90;;;;;;4969303;28;20416;-74
2022/03/25 00:06:05;;;;;;;23.80;13.90;;;5.20;99.90;;;;;;4960449;28;20650;-74
2022/03/25 00:08:31;;;;;;;24.77;14.73;;;5.10;99.90;;;;;;4972102;28;20420;-74
2022/03/25 00:10:57;;;;;;;23.10;14.47;;;5.20;99.90;;;;;;4973840;28;20179;-75
2022/03/25 00:13:23;;;;;;;20.90;12.87;;;5.10;99.90;;;;;;4971642;28;20278;-75
2022/03/25 00:15:49;;;;;;;35.43;13.40;;;5.00;99.90;;;;;;4972913;28;20527;-75
2022/03/25 00:18:14;;;;;;;22.70;13.77;;;5.00;99.90;;;;;;4972926;28;20859;-75
2022/03/25 00:20:40;;;;;;;20.37;13.17;;;4.90;99.90;;;;;;4973448;28;20172;-74
2022/03/25 00:23:06;;;;;;;25.33;14.40;;;4.90;99.90;;;;;;4971953;28;20675;-75
2022/03/25 00:25:31;;;;;;;18.93;12.20;;;4.90;99.90;;;;;;4973372;28;20415;-74
2022/03/25 00:27:57;;;;;;;24.07;13.70;;;4.80;99.90;;;;;;4971699;28;20184;-75
2022/03/25 00:30:22;;;;;;;22.80;12.50;;;4.80;99.90;;;;;;4973092;28;20232;-74
2022/03/25 00:32:48;;;;;;;26.27;13.47;;;4.80;99.90;;;;;;4972240;28;20200;-74
2022/03/25 00:35:13;;;;;;;23.40;13.93;;;4.70;99.90;;;;;;4972505;28;20246;-75
2022/03/25 00:37:39;;;;;;;21.47;13.77;;;4.70;99.90;;;;;;4973154;28;20647;-74
2022/03/25 00:40:06;;;;;;;23.40;13.20;;;4.70;99.90;;;;;;4972922;28;20200;-75
2022/03/25 00:42:32;;;;;;;26.00;14.30;;;4.60;99.90;;;;;;4973291;28;20426;-74
2022/03/25 00:45:01;;;;;;;27.03;13.87;;;4.60;99.90;;;;;;4972036;28;20421;-74
2022/03/25 00:47:27;;;;;;;27.20;14.00;;;4.60;99.90;;;;;;4972762;28;20869;-74
2022/03/25 00:49:52;;;;;;;25.67;14.90;;;4.50;99.90;;;;;;4972795;28;20443;-75
2022/03/25 00:52:18;;;;;;;22.47;14.27;;;4.50;99.90;;;;;;4972416;28;20249;-75
2022/03/25 00:54:44;;;;;;;21.13;13.17;;;4.60;99.90;;;;;;4972140;28;20203;-75
2022/03/25 00:57:10;;;;;;;20.37;13.30;;;4.50;99.90;;;;;;4972441;28;20540;-75
2022/03/25 00:59:36;;;;;;;24.10;13.40;;;4.50;99.90;;;;;;4972064;28;20251;-75
2022/03/25 01:02:02;;;;;;;24.07;13.90;;;4.50;99.90;;;;;;4967945;28;20538;-75
2022/03/25 01:04:29;;;;;;;29.23;15.67;;;4.40;99.90;;;;;;4972178;28;20172;-75
2022/03/25 01:06:55;;;;;;;20.90;13.23;;;4.40;99.90;;;;;;4971519;28;20477;-76
2022/03/25 01:09:21;;;;;;;24.20;14.50;;;4.30;99.90;;;;;;4969137;28;20447;-75
2022/03/25 01:11:47;;;;;;;23.07;14.60;;;4.30;99.90;;;;;;4970629;28;20491;-75
2022/03/25 01:14:13;;;;;;;28.33;14.77;;;4.30;99.90;;;;;;4969296;28;20669;-75
2022/03/25 01:16:39;;;;;;;24.10;13.70;;;4.30;99.90;;;;;;4972517;28;20646;-75
2022/03/25 01:19:05;;;;;;;23.63;14.73;;;4.30;99.90;;;;;;4967775;28;20457;-75
2022/03/25 01:21:31;;;;;;;31.90;13.70;;;4.20;99.90;;;;;;4972076;28;20929;-74
2022/03/25 01:23:57;;;;;;;22.47;13.40;;;4.10;99.90;;;;;;4968427;28;20438;-75
2022/03/25 01:26:23;;;;;;;21.50;13.90;;;4.10;99.90;;;;;;4971487;28;20407;-75
2022/03/25 01:28:49;;;;;;;23.87;14.10;;;4.10;99.90;;;;;;4963359;28;20925;-74
2022/03/25 01:31:14;;;;;;;25.00;13.70;;;4.00;99.90;;;;;;4969945;28;20663;-75
2022/03/25 01:33:40;;;;;;;25.53;13.60;;;4.00;99.90;;;;;;4971644;28;20166;-75
2022/03/25 01:36:06;;;;;;;29.50;14.67;;;4.00;99.90;;;;;;4970844;28;20234;-75
2022/03/25 01:38:32;;;;;;;25.80;15.77;;;4.00;99.90;;;;;;4970741;28;20496;-75
2022/03/25 01:40:58;;;;;;;29.33;14.60;;;4.00;99.90;;;;;;4969417;28;20202;-75
2022/03/25 01:43:24;;;;;;;24.00;14.40;;;3.90;99.90;;;;;;4971274;28;20897;-75
2022/03/25 01:45:50;;;;;;;27.10;14.40;;;3.90;99.90;;;;;;4965839;28;20269;-73
2022/03/25 01:48:19;;;;;;;28.23;15.50;;;3.90;99.90;;;;;;4971534;28;20189;-75
2022/03/25 01:50:47;;;;;;;30.80;14.90;;;3.80;99.90;;;;;;4970133;28;20181;-75
2022/03/25 01:53:21;;;;;;;20.37;14.20;;;3.80;99.90;;;;;;4967420;28;20442;-75
2022/03/25 01:55:53;;;;;;;26.20;15.23;;;3.80;99.90;;;;;;4971662;28;20614;-75
2022/03/25 01:58:19;;;;;;;25.30;13.80;;;3.80;99.90;;;;;;4969693;28;20517;-75
2022/03/25 03:31:39;;;;;;;22.87;13.80;;;2.70;99.90;;;;;;5647528;22;20815;-76
2022/03/25 03:34:05;;;;;;;29.57;15.00;;;2.70;99.90;;;;;;4999768;28;20446;-76
2022/03/25 03:36:30;;;;;;;25.73;15.20;;;2.60;99.90;;;;;;5003035;28;20251;-75
2022/03/25 03:38:55;;;;;;;22.53;13.40;;;2.60;99.90;;;;;;5013333;28;20189;-74
2022/03/25 03:41:21;;;;;;;26.47;16.67;;;2.60;99.90;;;;;;5001926;28;20215;-76
2022/03/25 03:43:47;;;;;;;29.20;15.93;;;2.60;99.90;;;;;;4974681;28;20663;-75
2022/03/25 03:46:12;;;;;;;25.03;14.13;;;2.70;99.90;;;;;;4977058;28;20185;-75
2022/03/25 03:48:38;;;;;;;28.00;14.90;;;2.60;99.90;;;;;;4986106;28;20184;-75
2022/03/25 03:51:03;;;;;;;32.20;17.13;;;2.60;99.90;;;;;;4991875;28;20278;-75
2022/03/25 03:53:28;;;;;;;26.77;14.50;;;2.60;99.90;;;;;;4993247;28;20239;-75
2022/03/25 03:55:54;;;;;;;27.70;14.50;;;2.60;99.90;;;;;;4993148;28;20198;-75
2022/03/25 03:58:22;;;;;;;29.80;14.20;;;2.50;99.90;;;;;;4979255;28;20184;-76
2022/03/25 04:00:49;;;;;;;28.53;13.77;;;2.50;99.90;;;;;;4993880;28;20709;-75
2022/03/25 04:03:15;;;;;;;25.97;14.60;;;2.40;99.90;;;;;;4978969;28;21010;-75
2022/03/25 04:05:40;;;;;;;27.53;14.90;;;2.50;99.90;;;;;;4974337;28;20415;-77
2022/03/25 04:08:07;;;;;;;27.13;15.13;;;2.50;99.90;;;;;;4985641;28;20279;-75
2022/03/25 04:10:33;;;;;;;30.73;13.83;;;2.40;99.90;;;;;;4993966;28;20190;-75
2022/03/25 04:12:59;;;;;;;26.17;14.87;;;2.40;99.90;;;;;;4992657;28;20443;-75
2022/03/25 04:15:24;;;;;;;37.60;14.70;;;2.40;99.90;;;;;;4993483;28;20464;-75
2022/03/25 04:17:50;;;;;;;24.60;14.23;;;2.40;99.90;;;;;;4993322;28;20192;-75
2022/03/25 04:20:17;;;;;;;30.20;15.50;;;2.40;99.90;;;;;;4993354;28;20645;-74
2022/03/25 04:22:44;;;;;;;25.53;14.87;;;2.30;99.90;;;;;;4991393;28;20189;-73
2022/03/25 04:25:10;;;;;;;22.20;13.83;;;2.30;99.90;;;;;;4993515;28;20490;-76
2022/03/25 04:27:51;;;;;;;30.13;15.07;;;2.30;99.90;;;;;;4993501;28;20431;-75
2022/03/25 04:30:21;;;;;;;32.27;15.97;;;2.30;99.90;;;;;;4973988;28;20176;-75
2022/03/25 04:32:47;;;;;;;26.00;14.63;;;2.20;99.90;;;;;;4973813;28;20479;-74
2022/03/25 04:35:13;;;;;;;29.07;15.47;;;2.30;99.90;;;;;;4973704;28;20495;-75
2022/03/25 04:37:39;;;;;;;21.50;14.07;;;2.20;99.90;;;;;;4975847;28;20220;-75
2022/03/25 04:40:05;;;;;;;24.70;13.83;;;2.20;99.90;;;;;;4986125;28;20184;-75
2022/03/25 04:42:30;;;;;;;29.03;15.97;;;2.20;99.90;;;;;;4993576;28;20229;-76
2022/03/25 04:44:56;;;;;;;28.63;15.07;;;2.10;99.90;;;;;;4992066;28;20496;-75
2022/03/25 04:47:21;;;;;;;25.63;14.30;;;2.10;99.90;;;;;;4993525;28;20623;-75
2022/03/25 04:49:47;;;;;;;44.23;19.60;;;2.10;99.90;;;;;;4988920;28;20525;-75
2022/03/25 04:52:13;;;;;;;30.33;17.67;;;2.10;99.90;;;;;;4988150;28;20682;-75
2022/03/25 04:54:39;;;;;;;29.33;16.63;;;2.00;99.90;;;;;;4982216;28;20266;-75
2022/03/25 04:57:04;;;;;;;30.47;16.07;;;2.10;99.90;;;;;;4990934;28;20573;-76
2022/03/25 04:59:30;;;;;;;33.90;16.27;;;2.00;99.90;;;;;;4986998;28;20567;-76
2022/03/25 05:01:55;;;;;;;28.47;15.87;;;2.00;99.90;;;;;;4972895;28;20217;-75
2022/03/25 05:04:21;;;;;;;27.43;14.57;;;2.00;99.90;;;;;;4972726;28;20590;-75
2022/03/25 05:06:47;;;;;;;29.13;15.13;;;2.00;99.90;;;;;;4972794;28;20180;-75
2022/03/25 05:09:13;;;;;;;36.33;17.97;;;2.00;99.90;;;;;;4972876;28;20432;-75
2022/03/25 05:11:39;;;;;;;33.03;14.93;;;1.90;99.90;;;;;;4974049;28;20386;-74
2022/03/25 05:14:05;;;;;;;25.60;14.23;;;1.90;99.90;;;;;;4987579;28;20463;-74
2022/03/25 05:16:30;;;;;;;26.93;15.30;;;1.90;99.90;;;;;;4989733;28;20220;-76
2022/03/25 05:18:56;;;;;;;30.70;14.63;;;1.90;99.90;;;;;;4972116;28;20705;-74
2022/03/25 05:21:21;;;;;;;27.90;15.80;;;1.90;99.90;;;;;;4971997;28;20204;-75
2022/03/25 05:23:47;;;;;;;27.20;13.57;;;2.00;99.90;;;;;;4981078;28;20185;-75
2022/03/25 05:26:13;;;;;;;35.07;16.50;;;2.10;99.90;;;;;;4989793;28;20607;-75
2022/03/25 05:28:38;;;;;;;32.77;15.50;;;2.10;99.90;;;;;;4979189;28;20215;-75
2022/03/25 05:31:04;;;;;;;32.20;16.37;;;2.10;99.90;;;;;;4988772;28;20218;-75
2022/03/25 05:33:29;;;;;;;33.70;18.03;;;2.10;99.90;;;;;;4985792;28;20277;-76
2022/03/25 05:35:55;;;;;;;29.47;17.10;;;2.10;99.90;;;;;;4991028;28;20848;-75
2022/03/25 05:38:20;;;;;;;33.63;16.80;;;2.10;99.90;;;;;;4987061;28;20489;-75
2022/03/25 05:40:46;;;;;;;34.20;18.90;;;2.10;99.90;;;;;;4971656;28;20220;-75
2022/03/25 05:43:12;;;;;;;27.03;15.97;;;2.20;99.90;;;;;;4971384;28;20230;-76
2022/03/25 05:45:37;;;;;;;33.97;17.53;;;2.20;99.90;;;;;;4979642;28;20508;-75
2022/03/25 05:48:03;;;;;;;34.20;16.93;;;2.30;99.90;;;;;;4971537;28;20444;-75
2022/03/25 05:50:29;;;;;;;32.53;16.03;;;2.40;99.90;;;;;;4972711;28;20189;-76
2022/03/25 05:52:54;;;;;;;35.53;17.23;;;2.50;99.90;;;;;;4971267;28;20944;-75
2022/03/25 05:55:20;;;;;;;34.67;16.40;;;2.60;99.90;;;;;;4974412;28;20188;-76
2022/03/25 05:57:46;;;;;;;26.43;15.77;;;2.60;99.90;;;;;;4991296;28;20192;-76
2022/03/25 06:00:14;;;;;;;33.97;16.30;;;2.70;99.90;;;;;;4989839;28;20238;-75
2022/03/25 06:02:41;;;;;;;35.57;16.00;;;2.80;99.90;;;;;;4991103;28;20778;-75
2022/03/25 06:05:07;;;;;;;35.37;15.60;;;3.00;99.90;;;;;;4988040;28;20428;-76
2022/03/25 06:07:37;;;;;;;32.97;15.77;;;3.20;99.90;;;;;;4984603;28;20471;-73
2022/03/25 06:10:04;;;;;;;30.57;17.67;;;3.70;99.90;;;;;;4990511;28;20422;-73
2022/03/25 06:12:30;;;;;;;32.00;14.97;;;4.70;99.90;;;;;;4973699;28;20582;-74
2022/03/25 06:14:55;;;;;;;31.70;17.73;;;5.90;99.90;;;;;;4978476;28;20455;-76
2022/03/25 06:17:21;;;;;;;33.73;17.40;;;7.10;99.90;;;;;;4976762;28;20217;-77
2022/03/25 06:19:46;;;;;;;27.40;16.43;;;8.20;99.90;;;;;;4972420;28;20183;-78
2022/03/25 06:22:12;;;;;;;29.17;17.13;;;8.90;99.90;;;;;;4972839;28;20210;-77
2022/03/25 06:24:37;;;;;;;30.40;16.60;;;9.50;99.90;;;;;;4970077;28;20266;-77
2022/03/25 06:27:03;;;;;;;30.33;16.87;;;9.90;99.90;;;;;;4971105;28;20183;-77
2022/03/25 06:29:29;;;;;;;33.93;17.93;;;10.50;99.90;;;;;;4980509;28;20187;-75
2022/03/25 06:31:54;;;;;;;33.33;18.07;;;11.30;99.90;;;;;;4985699;28;20230;-77
2022/03/25 06:34:21;;;;;;;28.00;18.20;;;12.00;99.90;;;;;;4982789;28;20187;-77
2022/03/25 06:36:49;;;;;;;29.00;18.00;;;12.10;99.90;;;;;;4989653;28;20290;-78
2022/03/25 06:39:15;;;;;;;27.07;19.03;;;12.50;99.90;;;;;;4980155;28;20434;-77
2022/03/25 06:41:41;;;;;;;34.00;20.57;;;12.90;99.90;;;;;;4991653;28;20464;-78
2022/03/25 06:44:06;;;;;;;37.13;19.30;;;13.00;99.90;;;;;;4979901;28;20435;-79
2022/03/25 06:46:32;;;;;;;26.93;20.10;;;13.20;99.90;;;;;;4975202;28;20735;-78
2022/03/25 06:48:58;;;;;;;31.00;19.20;;;13.60;99.90;;;;;;4974548;28;20191;-78
2022/03/25 06:51:24;;;;;;;28.73;19.47;;;14.10;99.90;;;;;;4977509;28;20215;-78
2022/03/25 06:53:50;;;;;;;36.70;21.10;;;14.20;99.90;;;;;;4974422;28;20522;-78
2022/03/25 06:56:16;;;;;;;32.53;20.67;;;14.60;99.90;;;;;;4974589;28;20550;-76
2022/03/25 06:58:42;;;;;;;27.13;20.23;;;15.20;99.90;;;;;;4972746;28;20669;-78
2022/03/25 07:01:07;;;;;;;33.60;20.27;;;15.10;99.90;;;;;;4985215;28;20477;-76
2022/03/25 07:03:33;;;;;;;29.13;20.43;;;15.60;99.90;;;;;;4988588;28;20218;-78
2022/03/25 07:06:00;;;;;;;28.33;20.07;;;15.60;99.90;;;;;;4983213;28;20192;-80
2022/03/25 07:08:27;;;;;;;32.93;21.00;;;15.90;99.90;;;;;;4974710;28;20806;-79
2022/03/25 07:10:53;;;;;;;32.47;22.23;;;15.80;99.90;;;;;;4983687;28;20434;-79
2022/03/25 07:13:19;;;;;;;27.23;19.93;;;15.80;99.80;;;;;;4993381;28;20508;-79
2022/03/25 07:15:44;;;;;;;29.03;21.00;;;15.80;99.90;;;;;;4992186;28;20203;-79
2022/03/25 07:18:10;;;;;;;31.97;21.10;;;15.30;99.50;;;;;;4972742;28;20184;-78
2022/03/25 07:20:35;;;;;;;31.77;20.17;;;15.00;99.80;;;;;;4971369;28;20195;-77
2022/03/25 07:23:02;;;;;;;38.03;22.13;;;14.60;99.80;;;;;;4978637;28;20210;-77
2022/03/25 07:25:30;;;;;;;32.83;21.93;;;14.10;99.90;;;;;;4990561;28;20242;-77
2022/03/25 07:27:56;;;;;;;34.17;21.70;;;14.10;99.90;;;;;;4979759;28;20453;-77
2022/03/25 07:30:22;;;;;;;35.90;21.50;;;14.10;99.90;;;;;;4977818;28;21014;-78
2022/03/25 07:32:48;;;;;;;32.30;20.30;;;14.00;99.90;;;;;;4988931;28;20207;-77
2022/03/25 07:35:16;;;;;;;37.03;21.83;;;13.80;99.90;;;;;;4988939;28;20537;-77
2022/03/25 07:37:43;;;;;;;35.03;21.43;;;14.00;99.90;;;;;;4992243;28;20203;-78
2022/03/25 07:40:10;;;;;;;35.90;22.87;;;14.00;99.90;;;;;;4995511;28;20426;-79
2022/03/25 07:42:41;;;;;;;38.17;22.13;;;14.20;99.90;;;;;;4996073;28;20435;-77
2022/03/25 07:45:10;;;;;;;42.53;21.17;;;14.40;99.90;;;;;;4994083;28;20442;-78
2022/03/25 07:47:44;;;;;;;31.93;21.40;;;14.50;99.90;;;;;;4995676;28;20414;-76
2022/03/25 07:50:14;;;;;;;32.83;21.23;;;14.60;99.30;;;;;;4984180;28;20982;-78
2022/03/25 07:52:41;;;;;;;37.60;23.57;;;14.60;99.00;;;;;;4975115;28;20526;-78
2022/03/25 07:55:09;;;;;;;33.50;22.20;;;14.80;99.10;;;;;;4980457;28;20441;-79
2022/03/25 07:57:36;;;;;;;35.23;22.57;;;14.90;99.40;;;;;;4993862;28;21049;-77
2022/03/25 08:00:03;;;;;;;43.97;23.00;;;14.90;99.90;;;;;;4992980;28;20442;-77
2022/03/25 08:02:29;;;;;;;37.27;22.80;;;15.00;99.00;;;;;;4975056;28;20443;-75
2022/03/25 08:04:55;;;;;;;34.30;21.07;;;15.30;99.10;;;;;;4973158;28;20419;-75
2022/03/25 08:07:21;;;;;;;33.00;21.93;;;15.70;97.90;;;;;;4981351;28;20414;-75
2022/03/25 08:09:46;;;;;;;34.83;22.30;;;15.50;98.50;;;;;;4992974;28;20179;-74
2022/03/25 08:12:12;;;;;;;36.30;22.90;;;15.80;97.70;;;;;;4981470;28;20470;-74
2022/03/25 08:14:37;;;;;;;34.93;23.50;;;16.20;97.90;;;;;;4976096;28;20554;-75
2022/03/25 08:17:03;;;;;;;36.60;22.40;;;16.40;97.80;;;;;;4988248;28;20208;-74
2022/03/25 08:19:31;;;;;;;41.47;22.20;;;16.70;97.20;;;;;;4988231;28;20532;-74
2022/03/25 08:21:56;;;;;;;34.73;22.77;;;16.50;96.20;;;;;;4991629;28;20493;-74
2022/03/25 08:29:51;;;;;;;37.40;23.17;;;16.80;96.00;;;;;;4983986;28;20819;-74
2022/03/25 08:32:17;;;;;;;42.73;24.20;;;17.10;96.00;;;;;;4991667;28;20482;-74
2022/03/25 08:34:42;;;;;;;39.47;24.30;;;17.40;94.80;;;;;;4990532;28;20521;-76
2022/03/25 08:37:08;;;;;;;42.83;23.70;;;17.50;95.50;;;;;;4991733;28;20214;-76
2022/03/25 08:39:34;;;;;;;40.23;22.37;;;17.60;93.40;;;;;;4991874;28;20187;-74
2022/03/25 08:41:59;;;;;;;37.03;24.07;;;17.60;92.50;;;;;;4991008;28;20294;-74
2022/03/25 08:44:25;;;;;;;37.23;24.90;;;17.40;92.70;;;;;;4989779;28;20707;-74
2022/03/25 08:46:51;;;;;;;34.20;21.10;;;17.50;93.00;;;;;;4990795;28;20554;-74
2022/03/25 08:49:16;;;;;;;46.50;26.40;;;17.60;93.40;;;;;;4990615;28;20171;-75
2022/03/25 08:51:42;;;;;;;43.57;24.80;;;17.80;91.50;;;;;;4983612;28;20199;-74
2022/03/25 08:54:08;;;;;;;41.97;25.67;;;17.80;92.70;;;;;;4991485;28;20182;-75
2022/03/25 08:56:34;;;;;;;37.53;25.10;;;18.20;91.80;;;;;;4981438;28;20534;-74
2022/03/25 08:59:00;;;;;;;40.63;25.43;;;18.40;90.30;;;;;;4971924;28;20679;-75
2022/03/25 09:01:26;;;;;;;42.33;26.60;;;18.50;91.40;;;;;;4980398;28;20498;-75
2022/03/25 09:03:51;;;;;;;48.37;26.60;;;18.60;90.60;;;;;;4991362;28;20547;-75
2022/03/25 09:06:17;;;;;;;41.47;24.33;;;18.90;88.00;;;;;;4990382;28;20633;-74
2022/03/25 09:08:42;;;;;;;45.30;25.23;;;18.40;90.30;;;;;;4987003;28;20183;-74
2022/03/25 09:11:10;;;;;;;49.53;25.27;;;18.60;89.90;;;;;;4987709;28;20226;-75
2022/03/25 09:13:35;;;;;;;45.83;27.20;;;18.60;87.00;;;;;;4985363;28;20183;-74
2022/03/25 09:16:01;;;;;;;44.23;26.37;;;18.80;85.40;;;;;;4982760;28;20745;-75
2022/03/25 09:18:27;;;;;;;42.57;26.37;;;18.80;85.70;;;;;;4976707;28;20655;-76
2022/03/25 09:20:52;;;;;;;41.97;27.57;;;19.30;88.10;;;;;;4990147;28;20171;-76
2022/03/25 09:23:18;;;;;;;44.90;25.47;;;19.50;86.00;;;;;;4989310;28;20190;-76
2022/03/25 09:25:44;;;;;;;43.87;26.87;;;19.60;84.20;;;;;;4986011;28;20190;-76
2022/03/25 09:28:09;;;;;;;46.37;25.67;;;19.70;83.50;;;;;;4992082;28;20648;-76
2022/03/25 09:30:35;;;;;;;44.47;25.20;;;20.00;81.30;;;;;;4991160;28;20194;-75
2022/03/25 09:33:00;;;;;;;42.67;28.17;;;20.00;80.80;;;;;;4989889;28;20199;-77
2022/03/25 09:35:26;;;;;;;42.77;26.43;;;20.20;80.70;;;;;;4978257;28;20699;-76
2022/03/25 09:37:53;;;;;;;49.67;27.17;;;20.30;81.70;;;;;;4972276;28;20267;-76
2022/03/25 09:40:24;;;;;;;38.90;24.57;;;20.60;79.00;;;;;;4972678;28;20640;-76
2022/03/25 09:42:51;;;;;;;38.70;26.00;;;20.30;79.90;;;;;;4971353;28;20439;-77
2022/03/25 09:45:19;;;;;;;37.57;24.90;;;19.90;78.00;;;;;;4978239;28;21008;-76
2022/03/25 09:47:46;;;;;;;40.30;26.23;;;20.00;79.30;;;;;;4991329;28;20783;-76
2022/03/25 09:50:17;;;;;;;45.43;26.83;;;20.20;78.50;;;;;;4990847;28;20930;-76
2022/03/25 09:52:43;;;;;;;41.93;26.80;;;20.40;78.00;;;;;;4975214;28;20805;-76
2022/03/25 09:55:10;;;;;;;45.20;27.90;;;20.70;80.80;;;;;;4972019;28;20428;-76
2022/03/25 09:57:36;;;;;;;53.50;27.87;;;21.20;78.90;;;;;;4975927;28;20462;-76
2022/03/25 10:00:05;;;;;;;42.43;26.67;;;21.20;75.70;;;;;;4990190;28;20442;-76
2022/03/25 10:02:31;;;;;;;50.00;27.87;;;21.00;74.90;;;;;;4985323;28;20448;-76
2022/03/25 10:04:57;;;;;;;41.23;26.70;;;21.20;74.90;;;;;;4970679;28;20539;-76
2022/03/25 10:07:27;;;;;;;46.17;28.00;;;21.30;75.00;;;;;;4971624;28;20255;-76
2022/03/25 10:10:12;;;;;;;38.20;26.10;;;21.80;74.40;;;;;;4989712;28;20213;-77
2022/03/25 10:12:40;;;;;;;39.17;26.70;;;22.10;76.90;;;;;;4990618;28;20469;-76
2022/03/25 10:15:20;;;;;;;36.17;26.53;;;22.30;72.80;;;;;;4978747;28;20438;-76
2022/03/25 10:17:49;;;;;;;39.33;25.93;;;22.10;69.00;;;;;;4989742;28;20561;-76
2022/03/25 10:20:16;;;;;;;41.67;26.57;;;21.50;65.40;;;;;;4981937;28;20978;-76
2022/03/25 10:23:00;;;;;;;37.20;25.93;;;21.50;65.80;;;;;;4990627;28;20434;-77
2022/03/25 10:25:42;;;;;;;44.67;26.50;;;21.20;63.80;;;;;;4979399;28;20462;-77
2022/03/25 10:28:40;;;;;;;37.93;25.30;;;21.10;64.50;;;;;;4970947;28;20421;-77
2022/03/25 10:31:11;;;;;;;40.93;26.27;;;21.40;65.50;;;;;;4976039;28;20496;-76
2022/03/25 10:33:45;;;;;;;37.40;26.57;;;21.40;64.50;;;;;;4989313;28;20785;-76
2022/03/25 10:36:14;;;;;;;39.60;25.67;;;21.70;64.80;;;;;;4988759;28;20454;-76
2022/03/25 10:38:54;;;;;;;38.07;24.97;;;22.00;61.00;;;;;;4990266;28;20421;-76
2022/03/25 10:41:40;;;;;;;44.60;26.90;;;22.00;62.70;;;;;;4984130;28;20463;-76
2022/03/25 10:44:08;;;;;;;38.60;25.40;;;22.20;61.10;;;;;;4989530;28;20441;-76
2022/03/25 10:46:39;;;;;;;36.27;26.53;;;22.30;62.00;;;;;;4988354;28;20450;-76
2022/03/25 10:49:07;;;;;;;34.90;24.97;;;21.90;60.60;;;;;;4970319;28;20994;-76
2022/03/25 10:51:34;;;;;;;38.73;25.80;;;21.80;60.40;;;;;;4970653;28;20825;-76
2022/03/25 10:54:02;;;;;;;41.17;26.60;;;21.70;60.70;;;;;;4980518;28;20474;-77
2022/03/25 10:56:30;;;;;;;33.03;24.90;;;21.90;61.30;;;;;;4990019;28;20470;-76
2022/03/25 10:58:57;;;;;;;46.47;26.47;;;22.00;61.50;;;;;;4989030;28;20443;-76
2022/03/25 11:01:23;;;;;;;40.60;26.43;;;21.70;61.60;;;;;;4989075;28;20450;-76
2022/03/25 11:03:50;;;;;;;43.93;28.57;;;21.80;61.50;;;;;;4983137;28;20970;-76
2022/03/25 11:06:18;;;;;;;35.53;25.53;;;21.60;60.30;;;;;;4992168;28;20442;-77
2022/03/25 11:08:50;;;;;;;38.00;25.40;;;21.50;61.80;;;;;;4992149;28;20462;-77
2022/03/25 11:11:17;;;;;;;36.10;22.90;;;21.10;59.60;;;;;;4976034;28;20446;-77
2022/03/25 11:13:47;;;;;;;32.07;24.20;;;21.30;62.10;;;;;;4980532;28;20450;-77
2022/03/25 11:16:17;;;;;;;36.70;25.50;;;21.70;61.20;;;;;;4994943;28;20462;-79
2022/03/25 11:18:44;;;;;;;37.13;25.20;;;21.70;60.50;;;;;;4997073;28;20421;-76
2022/03/25 11:21:11;;;;;;;35.60;24.20;;;22.10;62.00;;;;;;4982521;28;20466;-77
2022/03/25 11:23:43;;;;;;;42.20;26.20;;;22.00;59.20;;;;;;4977359;28;20427;-77
2022/03/25 11:26:11;;;;;;;37.10;27.70;;;22.30;59.40;;;;;;4976610;28;20458;-78
2022/03/25 11:28:38;;;;;;;32.03;23.00;;;22.50;60.50;;;;;;4978826;28;20469;-81
2022/03/25 11:31:05;;;;;;;34.73;21.77;;;22.40;58.80;;;;;;4979746;28;20467;-77
2022/03/25 11:33:31;;;;;;;32.23;22.27;;;22.50;57.90;;;;;;4980848;28;20442;-75
2022/03/25 11:36:14;;;;;;;33.83;23.50;;;22.40;56.60;;;;;;4976333;28;20522;-75
2022/03/25 11:38:40;;;;;;;35.97;24.07;;;21.90;57.30;;;;;;4995355;28;20493;-75
2022/03/25 11:41:25;;;;;;;29.13;20.37;;;21.70;57.30;;;;;;4995858;28;20438;-75
2022/03/25 11:44:15;;;;;;;35.17;24.30;;;21.90;57.40;;;;;;4992841;28;20422;-75
2022/03/25 11:47:16;;;;;;;33.63;22.50;;;22.00;57.80;;;;;;4993551;28;20844;-76
2022/03/25 11:49:43;;;;;;;33.90;23.50;;;21.70;57.70;;;;;;4934797;29;20432;-75
2022/03/25 11:52:29;;;;;;;35.80;23.77;;;21.60;59.20;;;;;;4964463;28;20458;-75
2022/03/25 11:54:58;;;;;;;32.40;22.70;;;21.90;59.60;;;;;;4972764;28;20422;-76
2022/03/25 11:57:32;;;;;;;34.97;22.00;;;21.70;59.50;;;;;;4973278;28;20466;-75
2022/03/25 12:00:02;;;;;;;33.00;23.70;;;22.10;59.50;;;;;;4971042;28;20940;-75
2022/03/25 12:02:33;;;;;;;32.60;22.67;;;22.10;58.50;;;;;;4989528;28;20441;-76
2022/03/25 12:05:00;;;;;;;31.90;20.63;;;21.70;58.50;;;;;;4989328;28;20430;-75
2022/03/25 12:07:26;;;;;;;30.90;21.13;;;21.50;57.20;;;;;;4989457;28;20517;-75
2022/03/25 12:09:52;;;;;;;39.77;24.40;;;21.40;58.50;;;;;;4988816;28;20518;-76
2022/03/25 12:12:18;;;;;;;31.07;21.73;;;21.60;59.50;;;;;;4990259;28;20576;-76
2022/03/25 12:15:13;;;;;;;31.43;22.57;;;21.60;58.60;;;;;;4989557;28;20525;-75
2022/03/25 12:17:39;;;;;;;35.90;24.70;;;21.50;58.60;;;;;;4991261;28;20219;-75
2022/03/25 12:20:05;;;;;;;39.17;23.47;;;21.30;58.60;;;;;;4991963;28;20943;-76
2022/03/25 12:22:33;;;;;;;34.93;24.23;;;21.00;59.10;;;;;;4991054;28;20195;-73
2022/03/25 12:25:10;;;;;;;34.50;23.77;;;21.00;58.60;;;;;;4989939;28;20450;-73
2022/03/25 12:27:35;;;;;;;35.20;24.60;;;20.60;58.10;;;;;;4989023;28;20529;-73
2022/03/25 12:30:01;;;;;;;34.67;24.83;;;20.40;59.40;;;;;;4988102;28;20509;-73
2022/03/25 12:32:33;;;;;;;31.10;22.10;;;20.50;59.30;;;;;;4987523;28;20273;-73
2022/03/25 12:35:00;;;;;;;37.00;22.93;;;20.50;61.40;;;;;;4988285;28;20206;-72
2022/03/25 12:37:34;;;;;;;31.97;22.40;;;20.70;59.90;;;;;;4986363;28;20926;-73
2022/03/25 12:40:16;;;;;;;41.23;24.10;;;21.00;61.40;;;;;;4990288;28;20482;-73
2022/03/25 12:42:43;;;;;;;31.20;22.10;;;20.80;59.00;;;;;;4990890;28;20438;-73
2022/03/25 12:45:10;;;;;;;31.97;22.60;;;20.70;58.60;;;;;;4981935;28;20411;-73
2022/03/25 12:47:37;;;;;;;37.70;24.43;;;20.70;59.10;;;;;;4982162;28;20779;-73
2022/03/25 12:50:05;;;;;;;35.60;23.23;;;20.40;58.40;;;;;;4988939;28;20792;-73
2022/03/25 12:52:31;;;;;;;40.50;24.63;;;20.10;59.30;;;;;;4992176;28;20554;-73
2022/03/25 12:55:15;;;;;;;36.70;23.70;;;19.90;59.00;;;;;;4982389;28;20951;-73
2022/03/25 12:57:42;;;;;;;37.40;24.47;;;19.80;59.20;;;;;;4982954;28;20573;-74
2022/03/25 13:00:12;;;;;;;39.33;25.37;;;19.90;61.70;;;;;;4970932;28;20412;-74
2022/03/25 13:02:39;;;;;;;46.50;27.33;;;20.00;63.50;;;;;;4972281;28;20440;-73
2022/03/25 13:05:12;;;;;;;39.43;25.97;;;19.90;62.00;;;;;;4972258;28;20470;-74
2022/03/25 13:07:47;;;;;;;40.47;27.77;;;19.90;63.00;;;;;;4973069;28;20429;-74
2022/03/25 13:10:14;;;;;;;39.67;26.33;;;19.80;62.50;;;;;;4972067;28;20795;-74
2022/03/25 13:12:42;;;;;;;38.07;24.83;;;19.90;63.10;;;;;;4971670;28;20456;-74
2022/03/25 13:15:11;;;;;;;37.00;23.77;;;19.80;61.90;;;;;;4971757;28;20840;-74
2022/03/25 13:17:38;;;;;;;39.47;25.00;;;19.90;61.40;;;;;;4972230;28;20987;-74
2022/03/25 13:20:17;;;;;;;33.07;24.07;;;19.80;60.90;;;;;;4972098;28;20419;-73
2022/03/25 13:22:54;;;;;;;35.93;23.33;;;19.50;61.10;;;;;;4982538;28;20974;-76
2022/03/25 13:25:45;;;;;;;40.57;23.63;;;19.50;60.10;;;;;;4989190;28;20430;-76
2022/03/25 13:28:15;;;;;;;30.17;21.43;;;19.70;60.40;;;;;;4990039;28;20419;-75
2022/03/25 13:30:44;;;;;;;32.83;23.67;;;19.80;61.00;;;;;;4991179;28;20422;-74
2022/03/25 13:33:24;;;;;;;33.00;21.10;;;19.90;61.80;;;;;;4989757;28;20991;-75
2022/03/25 13:35:51;;;;;;;31.50;20.90;;;19.80;58.30;;;;;;4991055;28;20504;-76
2022/03/25 13:38:21;;;;;;;36.13;20.50;;;19.60;58.10;;;;;;4990058;28;20435;-74
2022/03/25 13:40:49;;;;;;;29.43;20.00;;;19.60;57.30;;;;;;4990952;28;20468;-75
2022/03/25 13:43:20;;;;;;;29.27;19.60;;;19.70;58.30;;;;;;4990256;28;20469;-74
2022/03/25 13:46:07;;;;;;;29.27;19.37;;;19.60;57.40;;;;;;4991406;28;20417;-74
2022/03/25 13:48:39;;;;;;;30.10;18.50;;;19.70;56.90;;;;;;4991294;28;20449;-76
2022/03/25 13:51:23;;;;;;;26.20;16.17;;;19.60;55.80;;;;;;4990650;28;20466;-75
2022/03/25 13:53:49;;;;;;;23.60;18.17;;;19.60;55.30;;;;;;4990787;28;20418;-74
2022/03/25 13:56:21;;;;;;;30.00;20.27;;;19.60;56.40;;;;;;4990086;28;20454;-75
2022/03/25 13:58:50;;;;;;;33.83;23.50;;;19.60;58.40;;;;;;4991062;28;20186;-74
2022/03/25 14:01:18;;;;;;;34.63;23.87;;;19.70;58.50;;;;;;4990164;28;20496;-74
2022/03/25 14:03:45;;;;;;;35.70;24.50;;;19.70;58.70;;;;;;4982735;28;20407;-75
2022/03/25 14:06:13;;;;;;;37.53;25.00;;;19.70;60.00;;;;;;4970866;28;20463;-74
2022/03/25 14:08:40;;;;;;;41.67;25.97;;;19.60;59.70;;;;;;4971392;28;20415;-74
2022/03/25 14:11:07;;;;;;;43.53;27.33;;;19.50;59.90;;;;;;4971016;28;20854;-74